createdAt,value
2023-02-14T09:24:02.284Z,102121.69
2023-02-14T09:26:29.015Z,102118.61
2023-02-14T09:29:01.690Z,102120.80
2023-02-14T09:31:29.579Z,102121.76
2023-02-14T09:33:56.267Z,102119.60
2023-02-14T09:36:23.581Z,102118.48
2023-02-14T09:38:54.082Z,102115.92
2023-02-14T09:41:30.370Z,102114.77
2023-02-14T09:44:29.288Z,102111.72
2023-02-14T09:47:19.019Z,102115.43
2023-02-14T09:49:53.921Z,102122.39
2023-02-14T09:52:27.362Z,102123.44
2023-02-14T09:55:05.080Z,102126.93
2023-02-14T09:58:17.453Z,102129.88
2023-02-14T10:01:10.809Z,102131.41
2023-02-14T10:04:44.763Z,102131.02
2023-02-14T10:17:14.624Z,102130.94
2023-02-14T10:19:57.804Z,102126.23
2023-02-14T10:22:39.978Z,102121.03
2023-02-14T10:25:53.845Z,102121.42
2023-02-14T10:28:39.194Z,102119.21
2023-02-14T10:31:44.381Z,102123.11
2023-02-14T10:34:47.522Z,102126.70
2023-02-14T10:37:47.625Z,102124.26
2023-02-14T10:40:57.768Z,102127.34
2023-02-14T10:44:03.611Z,102122.91
2023-02-14T10:47:08.210Z,102126.31
2023-02-14T10:56:43.518Z,102118.81
2023-02-14T10:59:48.349Z,102123.37
2023-02-14T11:02:32.110Z,102122.46
2023-02-14T11:05:26.968Z,102129.40
2023-02-14T11:07:59.129Z,102122.05
2023-02-14T11:10:35.425Z,102123.94
2023-02-14T11:13:51.562Z,102118.70
2023-02-14T11:16:34.008Z,102119.27
2023-02-14T11:19:43.215Z,102115.24
2023-02-14T11:22:31.012Z,102117.11
2023-02-14T11:25:19.093Z,102108.82
2023-02-14T11:27:59.333Z,102103.25
2023-02-14T11:30:41.982Z,102104.90
2023-02-14T11:33:34.348Z,102103.48
2023-02-14T11:36:09.915Z,102096.31
2023-02-14T11:38:39.567Z,102096.70
2023-02-14T11:41:11.535Z,102094.67
2023-02-14T11:43:40.530Z,102094.34
2023-02-14T11:46:41.241Z,102093.52
2023-02-14T11:49:30.096Z,102093.11
2023-02-14T11:52:01.896Z,102092.98
2023-02-14T11:54:36.842Z,102087.96
2023-02-14T11:57:13.836Z,102090.40
2023-02-14T11:59:48.141Z,102091.39
2023-02-14T12:02:24.156Z,102087.14
2023-02-14T12:05:20.928Z,102078.08
2023-02-14T12:07:52.902Z,102076.19
2023-02-14T12:10:25.794Z,102075.67
2023-02-14T12:13:13.758Z,102080.56
2023-02-14T12:16:00.631Z,102079.75
2023-02-14T12:19:07.342Z,102081.59
2023-02-14T12:21:46.479Z,102076.59
2023-02-14T12:24:16.036Z,102075.73
2023-02-14T12:27:23.052Z,102076.27
2023-02-14T12:30:19.662Z,102072.35
2023-02-14T12:33:13.215Z,102072.55
2023-02-14T12:35:54.221Z,102064.36
2023-02-14T12:39:11.089Z,102067.08
2023-02-14T12:41:48.242Z,102064.30
2023-02-14T12:45:04.183Z,102057.29
2023-02-14T12:48:06.164Z,102057.43
2023-02-14T12:51:11.691Z,102060.80
2023-02-14T12:54:05.120Z,102059.56
2023-02-14T12:56:55.093Z,102054.86
2023-02-14T13:18:05.686Z,102053.61
2023-02-14T13:20:45.988Z,102051.68
2023-02-14T13:23:42.840Z,102054.38
2023-02-14T13:26:41.061Z,102058.54
2023-02-14T13:29:16.191Z,102056.31
2023-02-14T13:31:46.434Z,102062.55
2023-02-14T13:34:38.405Z,102066.56
2023-02-14T13:37:11.682Z,102064.61
2023-02-14T13:39:43.968Z,102066.73
2023-02-14T13:42:14.857Z,102068.41
2023-02-14T13:44:50.103Z,102065.56
2023-02-14T13:47:23.888Z,102062.11
2023-02-14T13:50:05.601Z,102060.98
2023-02-14T13:52:49.043Z,102058.77
2023-02-14T13:55:44.312Z,102062.20
2023-02-14T13:58:18.519Z,102062.50
2023-02-14T14:00:49.065Z,102058.65
2023-02-14T14:04:05.692Z,102057.83
2023-02-14T14:07:26.809Z,102053.12
2023-02-14T14:10:02.355Z,102050.99
2023-02-14T14:12:52.285Z,102046.01
2023-02-14T14:15:20.635Z,102045.02
2023-02-14T14:18:09.101Z,102047.00
2023-02-14T14:20:54.610Z,102045.84
2023-02-14T14:23:34.319Z,102044.81
2023-02-14T14:26:01.724Z,102046.98
2023-02-14T14:28:32.231Z,102047.25
2023-02-14T14:31:02.052Z,102053.82
2023-02-14T14:33:39.672Z,102050.05
2023-02-14T14:36:11.047Z,102050.79
2023-02-14T14:38:49.986Z,102049.33
2023-02-14T14:41:18.445Z,102050.21
2023-02-14T14:43:46.836Z,102050.84
2023-02-14T14:46:18.180Z,102050.30
2023-02-14T14:48:56.460Z,102052.64
2023-02-14T14:51:30.996Z,102052.89
2023-02-14T14:56:58.993Z,102046.33
2023-02-14T14:59:37.617Z,102050.58
2023-02-14T15:02:29.502Z,102047.06
2023-02-14T15:05:06.063Z,102048.96
2023-02-14T15:07:37.982Z,102042.06
2023-02-14T15:10:28.082Z,102044.02
2023-02-14T15:13:17.143Z,102047.95
2023-02-14T15:15:55.300Z,102047.56
2023-02-14T15:18:22.718Z,102048.17
2023-02-14T15:20:52.219Z,102052.66
2023-02-14T15:23:23.330Z,102051.70
2023-02-14T15:25:52.350Z,102050.30
2023-02-14T15:28:33.920Z,102047.73
2023-02-14T15:31:07.982Z,102049.36
2023-02-14T15:33:38.843Z,102046.25
2023-02-14T15:36:19.332Z,102053.50
2023-02-14T15:38:48.215Z,102049.77
2023-02-14T15:41:16.570Z,102055.21
2023-02-14T15:43:53.730Z,102051.04
2023-02-14T15:46:43.678Z,102055.64
2023-02-14T15:49:39.665Z,102054.02
2023-02-14T15:52:11.946Z,102058.73
2023-02-14T15:54:43.401Z,102056.52
2023-02-14T15:57:29.779Z,102062.13
2023-02-14T15:59:57.135Z,102063.19
2023-02-14T16:02:32.996Z,102068.98
2023-02-14T16:05:08.494Z,102065.96
2023-02-14T16:07:35.438Z,102071.19
2023-02-14T16:10:44.011Z,102073.89
2023-02-14T16:13:42.163Z,102077.70
2023-02-14T16:17:00.863Z,102080.52
2023-02-14T16:19:40.095Z,102082.11
2023-02-14T16:22:10.495Z,102084.41
2023-02-14T16:24:48.083Z,102085.48
2023-02-14T16:27:18.098Z,102085.85
2023-02-14T16:29:46.289Z,102087.75
2023-02-14T16:32:26.133Z,102090.20
2023-02-14T16:34:57.832Z,102094.30
2023-02-14T16:37:30.694Z,102092.48
2023-02-14T16:40:02.033Z,102097.17
2023-02-14T16:42:30.710Z,102096.43
2023-02-14T16:45:25.597Z,102095.42
2023-02-14T16:47:56.660Z,102102.61
2023-02-14T16:50:25.925Z,102100.94
2023-02-14T16:53:12.034Z,102104.21
2023-02-14T16:55:42.525Z,102103.85
2023-02-14T16:58:15.925Z,102106.11
2023-02-14T17:00:45.905Z,102109.69
2023-02-14T17:03:20.240Z,102109.48
2023-02-14T17:05:52.803Z,102106.14
2023-02-14T17:08:27.733Z,102109.27
2023-02-14T17:10:59.198Z,102113.23
2023-02-14T17:13:29.955Z,102112.73
2023-02-14T17:16:03.314Z,102119.52
2023-02-14T17:18:38.665Z,102120.50
2023-02-14T17:22:12.351Z,102122.19
2023-02-14T17:24:42.745Z,102123.61
2023-02-14T17:27:13.423Z,102123.69
2023-02-14T17:29:45.588Z,102125.24
2023-02-14T17:32:20.149Z,102124.48
2023-02-14T17:34:57.186Z,102120.70
2023-02-14T17:37:49.454Z,102128.03
2023-02-14T17:40:25.154Z,102130.74
2023-02-14T17:42:55.263Z,102130.35
2023-02-14T17:45:24.241Z,102127.91
2023-02-14T17:47:52.806Z,102127.45
2023-02-14T17:50:21.375Z,102130.10
2023-02-14T17:52:57.835Z,102129.08
2023-02-14T17:55:24.732Z,102129.71
2023-02-14T17:57:54.472Z,102129.89
2023-02-14T18:00:22.065Z,102134.19
2023-02-14T18:02:50.114Z,102135.04
2023-02-14T18:05:17.894Z,102135.11
2023-02-14T18:07:44.934Z,102137.77
2023-02-14T18:10:13.114Z,102136.00
2023-02-14T18:12:40.866Z,102136.02
2023-02-14T18:15:08.290Z,102136.63
2023-02-14T18:17:35.893Z,102137.79
2023-02-14T18:20:05.739Z,102136.62
2023-02-14T18:22:33.319Z,102137.01
2023-02-14T18:25:00.203Z,102136.58
2023-02-14T18:27:26.630Z,102135.85
2023-02-14T18:29:53.910Z,102135.63
2023-02-14T18:32:20.708Z,102134.85
2023-02-14T18:34:48.513Z,102139.42
2023-02-14T18:37:15.560Z,102139.23
2023-02-14T18:39:42.450Z,102137.20
2023-02-14T18:42:09.544Z,102136.79
2023-02-14T18:44:36.759Z,102135.29
2023-02-14T18:47:03.668Z,102138.02
2023-02-14T18:49:30.612Z,102132.80
2023-02-14T18:51:58.280Z,102134.75
2023-02-14T18:54:24.964Z,102134.53
2023-02-14T18:56:51.803Z,102139.13
2023-02-14T18:59:18.376Z,102137.66
2023-02-14T19:01:45.633Z,102143.06
2023-02-14T19:04:14.050Z,102142.16
2023-02-14T19:06:42.798Z,102138.58
2023-02-14T19:09:14.770Z,102143.91
2023-02-14T19:11:44.425Z,102143.01
2023-02-14T19:14:12.893Z,102142.61
2023-02-14T19:16:51.747Z,102139.79
2023-02-14T19:19:19.298Z,102140.52
2023-02-14T19:21:49.874Z,102141.23
2023-02-14T19:24:18.454Z,102143.13
2023-02-14T19:26:45.791Z,102135.77
2023-02-14T19:29:20.044Z,102134.58
2023-02-14T19:31:49.658Z,102141.12
2023-02-14T19:34:23.789Z,102141.94
2023-02-14T19:36:52.653Z,102143.86
2023-02-14T19:39:22.426Z,102139.20
2023-02-14T19:41:53.382Z,102139.30
2023-02-14T19:44:29.171Z,102141.16
2023-02-14T19:47:00.872Z,102140.92
2023-02-14T19:49:30.493Z,102141.77
2023-02-14T19:51:59.145Z,102137.14
2023-02-14T19:54:29.591Z,102141.93
2023-02-14T19:57:00.829Z,102142.48
2023-02-14T19:59:36.892Z,102143.73
2023-02-14T20:02:04.126Z,102142.89
2023-02-14T20:04:32.621Z,102142.80
2023-02-14T20:07:01.087Z,102143.72
2023-02-14T20:09:29.022Z,102136.66
2023-02-14T20:11:58.782Z,102139.36
2023-02-14T20:14:38.423Z,102133.67
2023-02-14T20:17:39.575Z,102137.80
2023-02-14T20:20:09.252Z,102138.21
2023-02-14T20:22:39.095Z,102141.70
2023-02-14T20:25:07.956Z,102140.89
2023-02-14T20:27:49.506Z,102138.77
2023-02-14T20:30:35.584Z,102138.95
2023-02-14T20:33:02.735Z,102134.05
2023-02-14T20:35:34.117Z,102135.20
2023-02-14T20:40:53.898Z,102135.52
2023-02-14T20:43:25.831Z,102137.75
2023-02-14T20:45:53.434Z,102135.96
2023-02-14T20:48:21.545Z,102133.94
2023-02-14T20:50:49.609Z,102135.89
2023-02-14T20:53:17.086Z,102137.55
2023-02-14T20:55:48.343Z,102136.31
2023-02-14T20:58:23.654Z,102133.13
2023-02-14T21:01:00.249Z,102132.55
2023-02-14T21:03:31.935Z,102133.92
2023-02-14T21:06:05.579Z,102135.89
2023-02-14T21:08:34.406Z,102137.05
2023-02-14T21:11:09.934Z,102138.77
2023-02-14T21:13:39.728Z,102140.73
2023-02-14T21:16:17.292Z,102141.75
2023-02-14T21:18:52.212Z,102141.84
2023-02-14T21:21:23.692Z,102146.53
2023-02-14T21:23:52.031Z,102151.20
2023-02-14T21:26:21.341Z,102148.10
2023-02-14T21:29:13.151Z,102145.56
2023-02-14T21:31:41.253Z,102144.52
2023-02-14T21:34:53.841Z,102145.98
2023-02-14T21:37:46.096Z,102145.61
2023-02-14T21:40:18.744Z,102141.87
2023-02-14T21:42:48.969Z,102139.67
2023-02-14T21:45:37.734Z,102142.43
2023-02-14T21:48:24.555Z,102141.83
2023-02-14T21:50:55.648Z,102140.14
2023-02-14T21:53:25.190Z,102134.95
2023-02-14T21:55:54.292Z,102137.38
2023-02-14T21:58:26.718Z,102137.55
2023-02-14T22:00:56.579Z,102139.39
2023-02-14T22:03:33.994Z,102134.97
2023-02-14T22:06:08.016Z,102135.61
2023-02-14T22:08:39.336Z,102137.92
2023-02-14T22:11:16.724Z,102135.80
2023-02-14T22:13:52.274Z,102133.48
2023-02-14T22:16:38.135Z,102130.48
2023-02-14T22:19:12.681Z,102130.23
2023-02-14T22:23:43.839Z,102133.36
2023-02-14T22:26:57.913Z,102129.98
2023-02-14T22:29:28.765Z,102131.05
2023-02-14T22:32:00.927Z,102131.65
2023-02-14T22:34:38.568Z,102130.19
